<?xml version="1.0" encoding="UTF-8" standalone="no" ?>
<gpx xmlns="http://www.topografix.com/GPX/1/1" xmlns:xsi="http://www.w3.org/2001/XMLSchema-instance" xsi:schemaLocation="http://www.topografix.com/GPX/1/1 http://www.topografix.com/GPX/1/1/gpx.xsd" version="1.1" creator="VisuGPX - https://www.visugpx.com">
  <metadata>
    <name>la petite camargue</name>
    <desc><![CDATA[Rando du 21/09/20 proposée par Sylvie/Marlène pour Gransrandonnée]]></desc>
  </metadata>
  <trk>
    <name><![CDATA[la petite camargue]]></name>
    <trkseg>
      <trkpt lat="43.54199" lon="5.04139">
        <ele>13.6</ele>
        <time>2020-09-21T11:58:58Z</time>
      </trkpt>
      <trkpt lat="43.54199" lon="5.0414">
        <ele>13.6</ele>
        <time>2020-09-21T11:58:59Z</time>
      </trkpt>
      <trkpt lat="43.5419" lon="5.04138">
        <ele>13.7</ele>
        <time>2020-09-21T11:59:13Z</time>
      </trkpt>
      <trkpt lat="43.5416" lon="5.04122">
        <ele>14</ele>
        <time>2020-09-21T11:59:44Z</time>
      </trkpt>
      <trkpt lat="43.54155" lon="5.04117">
        <ele>14.1</ele>
        <time>2020-09-21T11:59:50Z</time>
      </trkpt>
      <trkpt lat="43.54109" lon="5.04118">
        <ele>14.4</ele>
        <time>2020-09-21T12:00:33Z</time>
      </trkpt>
      <trkpt lat="43.54069" lon="5.04123">
        <ele>14.8</ele>
        <time>2020-09-21T12:01:08Z</time>
      </trkpt>
      <trkpt lat="43.5404" lon="5.04126">
        <ele>15.3</ele>
        <time>2020-09-21T12:01:42Z</time>
      </trkpt>
      <trkpt lat="43.54003" lon="5.04132">
        <ele>15.8</ele>
        <time>2020-09-21T12:02:14Z</time>
      </trkpt>
      <trkpt lat="43.53973" lon="5.04133">
        <ele>16.5</ele>
        <time>2020-09-21T12:02:46Z</time>
      </trkpt>
      <trkpt lat="43.53941" lon="5.04139">
        <ele>17.3</ele>
        <time>2020-09-21T12:03:17Z</time>
      </trkpt>
      <trkpt lat="43.5394" lon="5.04139">
        <ele>17.3</ele>
        <time>2020-09-21T12:03:18Z</time>
      </trkpt>
      <trkpt lat="43.53925" lon="5.0415">
        <ele>17.7</ele>
        <time>2020-09-21T12:03:34Z</time>
      </trkpt>
      <trkpt lat="43.53903" lon="5.04168">
        <ele>18.2</ele>
        <time>2020-09-21T12:04:02Z</time>
      </trkpt>
      <trkpt lat="43.5388" lon="5.042">
        <ele>17.6</ele>
        <time>2020-09-21T12:04:33Z</time>
      </trkpt>
      <trkpt lat="43.53836" lon="5.04213">
        <ele>18.8</ele>
        <time>2020-09-21T12:05:12Z</time>
      </trkpt>
      <trkpt lat="43.53802" lon="5.04204">
        <ele>19.7</ele>
        <time>2020-09-21T12:05:45Z</time>
      </trkpt>
      <trkpt lat="43.53768" lon="5.0417">
        <ele>20.7</ele>
        <time>2020-09-21T12:06:23Z</time>
      </trkpt>
      <trkpt lat="43.53742" lon="5.04147">
        <ele>21.4</ele>
        <time>2020-09-21T12:06:53Z</time>
      </trkpt>
      <trkpt lat="43.53707" lon="5.04116">
        <ele>22.4</ele>
        <time>2020-09-21T12:07:29Z</time>
      </trkpt>
      <trkpt lat="43.53672" lon="5.04106">
        <ele>23.3</ele>
        <time>2020-09-21T12:08:00Z</time>
      </trkpt>
      <trkpt lat="43.53643" lon="5.0412">
        <ele>22.7</ele>
        <time>2020-09-21T12:08:30Z</time>
      </trkpt>
      <trkpt lat="43.53612" lon="5.04152">
        <ele>21.6</ele>
        <time>2020-09-21T12:09:04Z</time>
      </trkpt>
      <trkpt lat="43.5358" lon="5.04182">
        <ele>21</ele>
        <time>2020-09-21T12:09:38Z</time>
      </trkpt>
      <trkpt lat="43.5354" lon="5.04206">
        <ele>21.3</ele>
        <time>2020-09-21T12:10:16Z</time>
      </trkpt>
      <trkpt lat="43.53505" lon="5.04211">
        <ele>21.4</ele>
        <time>2020-09-21T12:10:49Z</time>
      </trkpt>
      <trkpt lat="43.53465" lon="5.04206">
        <ele>21.1</ele>
        <time>2020-09-21T12:11:23Z</time>
      </trkpt>
      <trkpt lat="43.53432" lon="5.04193">
        <ele>20.6</ele>
        <time>2020-09-21T12:11:56Z</time>
      </trkpt>
      <trkpt lat="43.53396" lon="5.04208">
        <ele>19.1</ele>
        <time>2020-09-21T12:12:31Z</time>
      </trkpt>
      <trkpt lat="43.53366" lon="5.04235">
        <ele>17.7</ele>
        <time>2020-09-21T12:13:04Z</time>
      </trkpt>
      <trkpt lat="43.53341" lon="5.04264">
        <ele>16.4</ele>
        <time>2020-09-21T12:13:36Z</time>
      </trkpt>
      <trkpt lat="43.5331" lon="5.04302">
        <ele>15.1</ele>
        <time>2020-09-21T12:14:11Z</time>
      </trkpt>
      <trkpt lat="43.53284" lon="5.04332">
        <ele>14.2</ele>
        <time>2020-09-21T12:14:41Z</time>
      </trkpt>
      <trkpt lat="43.53247" lon="5.04362">
        <ele>13</ele>
        <time>2020-09-21T12:15:17Z</time>
      </trkpt>
      <trkpt lat="43.53211" lon="5.04385">
        <ele>12.7</ele>
        <time>2020-09-21T12:15:53Z</time>
      </trkpt>
      <trkpt lat="43.53185" lon="5.04417">
        <ele>12.2</ele>
        <time>2020-09-21T12:16:24Z</time>
      </trkpt>
      <trkpt lat="43.53165" lon="5.04454">
        <ele>11.1</ele>
        <time>2020-09-21T12:16:54Z</time>
      </trkpt>
      <trkpt lat="43.53133" lon="5.04487">
        <ele>10.6</ele>
        <time>2020-09-21T12:17:29Z</time>
      </trkpt>
      <trkpt lat="43.53098" lon="5.04504">
        <ele>10.8</ele>
        <time>2020-09-21T12:18:01Z</time>
      </trkpt>
      <trkpt lat="43.53063" lon="5.04516">
        <ele>9.7</ele>
        <time>2020-09-21T12:18:35Z</time>
      </trkpt>
      <trkpt lat="43.53026" lon="5.04515">
        <ele>7.6</ele>
        <time>2020-09-21T12:19:10Z</time>
      </trkpt>
      <trkpt lat="43.53018" lon="5.04503">
        <ele>7.1</ele>
        <time>2020-09-21T12:19:32Z</time>
      </trkpt>
      <trkpt lat="43.53022" lon="5.04496">
        <ele>7.3</ele>
        <time>2020-09-21T12:20:04Z</time>
      </trkpt>
      <trkpt lat="43.53016" lon="5.04507">
        <ele>7</ele>
        <time>2020-09-21T12:20:20Z</time>
      </trkpt>
      <trkpt lat="43.5301" lon="5.04511">
        <ele>6.7</ele>
        <time>2020-09-21T12:20:48Z</time>
      </trkpt>
      <trkpt lat="43.52999" lon="5.0452">
        <ele>6.2</ele>
        <time>2020-09-21T12:21:13Z</time>
      </trkpt>
      <trkpt lat="43.52999" lon="5.04519">
        <ele>6.2</ele>
        <time>2020-09-21T12:21:14Z</time>
      </trkpt>
      <trkpt lat="43.53006" lon="5.04515">
        <ele>6.5</ele>
        <time>2020-09-21T12:21:28Z</time>
      </trkpt>
      <trkpt lat="43.52986" lon="5.04524">
        <ele>6</ele>
        <time>2020-09-21T12:21:51Z</time>
      </trkpt>
      <trkpt lat="43.5295" lon="5.04538">
        <ele>5.5</ele>
        <time>2020-09-21T12:22:24Z</time>
      </trkpt>
      <trkpt lat="43.52934" lon="5.0455">
        <ele>5.5</ele>
        <time>2020-09-21T12:22:45Z</time>
      </trkpt>
      <trkpt lat="43.52918" lon="5.04585">
        <ele>6</ele>
        <time>2020-09-21T12:23:14Z</time>
      </trkpt>
      <trkpt lat="43.52911" lon="5.04609">
        <ele>5.2</ele>
        <time>2020-09-21T12:23:38Z</time>
      </trkpt>
      <trkpt lat="43.52907" lon="5.04615">
        <ele>4.9</ele>
        <time>2020-09-21T12:23:43Z</time>
      </trkpt>
      <trkpt lat="43.52887" lon="5.04623">
        <ele>4.2</ele>
        <time>2020-09-21T12:24:10Z</time>
      </trkpt>
      <trkpt lat="43.52884" lon="5.04622">
        <ele>4.1</ele>
        <time>2020-09-21T12:24:14Z</time>
      </trkpt>
      <trkpt lat="43.52864" lon="5.04616">
        <ele>3.6</ele>
        <time>2020-09-21T12:24:40Z</time>
      </trkpt>
      <trkpt lat="43.52832" lon="5.04633">
        <ele>2.4</ele>
        <time>2020-09-21T12:25:10Z</time>
      </trkpt>
      <trkpt lat="43.52797" lon="5.04629">
        <ele>2.5</ele>
        <time>2020-09-21T12:25:45Z</time>
      </trkpt>
      <trkpt lat="43.52779" lon="5.04632">
        <ele>2.5</ele>
        <time>2020-09-21T12:26:04Z</time>
      </trkpt>
      <trkpt lat="43.52751" lon="5.04664">
        <ele>3</ele>
        <time>2020-09-21T12:26:37Z</time>
      </trkpt>
      <trkpt lat="43.52719" lon="5.04673">
        <ele>2.6</ele>
        <time>2020-09-21T12:27:07Z</time>
      </trkpt>
      <trkpt lat="43.52707" lon="5.04694">
        <ele>2.5</ele>
        <time>2020-09-21T12:27:29Z</time>
      </trkpt>
      <trkpt lat="43.52698" lon="5.04705">
        <ele>2.5</ele>
        <time>2020-09-21T12:27:41Z</time>
      </trkpt>
      <trkpt lat="43.52682" lon="5.04714">
        <ele>2.5</ele>
        <time>2020-09-21T12:28:12Z</time>
      </trkpt>
      <trkpt lat="43.52664" lon="5.04733">
        <ele>2.7</ele>
        <time>2020-09-21T12:28:51Z</time>
      </trkpt>
      <trkpt lat="43.52652" lon="5.04758">
        <ele>2.3</ele>
        <time>2020-09-21T12:29:14Z</time>
      </trkpt>
      <trkpt lat="43.52634" lon="5.04763">
        <ele>1.7</ele>
        <time>2020-09-21T12:29:40Z</time>
      </trkpt>
      <trkpt lat="43.52621" lon="5.04744">
        <ele>1.3</ele>
        <time>2020-09-21T12:30:03Z</time>
      </trkpt>
      <trkpt lat="43.52625" lon="5.04722">
        <ele>1.2</ele>
        <time>2020-09-21T12:30:25Z</time>
      </trkpt>
      <trkpt lat="43.52622" lon="5.04701">
        <ele>0.8</ele>
        <time>2020-09-21T12:30:45Z</time>
      </trkpt>
      <trkpt lat="43.52608" lon="5.04672">
        <ele>-0.1</ele>
        <time>2020-09-21T12:31:15Z</time>
      </trkpt>
      <trkpt lat="43.52608" lon="5.04663">
        <ele>-0.1</ele>
        <time>2020-09-21T12:31:27Z</time>
      </trkpt>
      <trkpt lat="43.52602" lon="5.0464">
        <ele>-0.2</ele>
        <time>2020-09-21T12:31:58Z</time>
      </trkpt>
      <trkpt lat="43.52591" lon="5.04608">
        <ele>-0.2</ele>
        <time>2020-09-21T12:32:32Z</time>
      </trkpt>
      <trkpt lat="43.5258" lon="5.04575">
        <ele>1</ele>
        <time>2020-09-21T12:33:04Z</time>
      </trkpt>
      <trkpt lat="43.52573" lon="5.04555">
        <ele>1</ele>
        <time>2020-09-21T12:33:22Z</time>
      </trkpt>
      <trkpt lat="43.52563" lon="5.04526">
        <ele>1</ele>
        <time>2020-09-21T12:33:57Z</time>
      </trkpt>
      <trkpt lat="43.52563" lon="5.04521">
        <ele>1</ele>
        <time>2020-09-21T12:34:19Z</time>
      </trkpt>
      <trkpt lat="43.52563" lon="5.04523">
        <ele>1</ele>
        <time>2020-09-21T12:34:21Z</time>
      </trkpt>
      <trkpt lat="43.52563" lon="5.0452">
        <ele>1</ele>
        <time>2020-09-21T12:34:39Z</time>
      </trkpt>
      <trkpt lat="43.5256" lon="5.04513">
        <ele>1</ele>
        <time>2020-09-21T12:34:48Z</time>
      </trkpt>
      <trkpt lat="43.52548" lon="5.04471">
        <ele>1</ele>
        <time>2020-09-21T12:35:18Z</time>
      </trkpt>
      <trkpt lat="43.52547" lon="5.0447">
        <ele>1</ele>
        <time>2020-09-21T12:35:23Z</time>
      </trkpt>
      <trkpt lat="43.52543" lon="5.04464">
        <ele>1</ele>
        <time>2020-09-21T12:35:28Z</time>
      </trkpt>
      <trkpt lat="43.52526" lon="5.04412">
        <ele>1</ele>
        <time>2020-09-21T12:36:04Z</time>
      </trkpt>
      <trkpt lat="43.52522" lon="5.04403">
        <ele>1</ele>
        <time>2020-09-21T12:36:35Z</time>
      </trkpt>
      <trkpt lat="43.52529" lon="5.04398">
        <ele>1</ele>
        <time>2020-09-21T12:37:04Z</time>
      </trkpt>
      <trkpt lat="43.52527" lon="5.04402">
        <ele>1</ele>
        <time>2020-09-21T12:37:18Z</time>
      </trkpt>
      <trkpt lat="43.52522" lon="5.04411">
        <ele>1</ele>
        <time>2020-09-21T12:37:49Z</time>
      </trkpt>
      <trkpt lat="43.5252" lon="5.04411">
        <ele>1</ele>
        <time>2020-09-21T12:38:21Z</time>
      </trkpt>
      <trkpt lat="43.52517" lon="5.04414">
        <ele>1</ele>
        <time>2020-09-21T12:38:54Z</time>
      </trkpt>
      <trkpt lat="43.52516" lon="5.0442">
        <ele>1</ele>
        <time>2020-09-21T12:39:45Z</time>
      </trkpt>
      <trkpt lat="43.52516" lon="5.04421">
        <ele>1</ele>
        <time>2020-09-21T12:39:46Z</time>
      </trkpt>
      <trkpt lat="43.52509" lon="5.0446">
        <ele>1</ele>
        <time>2020-09-21T12:40:16Z</time>
      </trkpt>
      <trkpt lat="43.52498" lon="5.04477">
        <ele>1</ele>
        <time>2020-09-21T12:40:42Z</time>
      </trkpt>
      <trkpt lat="43.52484" lon="5.04503">
        <ele>1</ele>
        <time>2020-09-21T12:41:09Z</time>
      </trkpt>
      <trkpt lat="43.52467" lon="5.04533">
        <ele>1</ele>
        <time>2020-09-21T12:41:43Z</time>
      </trkpt>
      <trkpt lat="43.52467" lon="5.04529">
        <ele>1</ele>
        <time>2020-09-21T12:41:49Z</time>
      </trkpt>
      <trkpt lat="43.52456" lon="5.04528">
        <ele>1</ele>
        <time>2020-09-21T12:42:13Z</time>
      </trkpt>
      <trkpt lat="43.52453" lon="5.04533">
        <ele>1</ele>
        <time>2020-09-21T12:42:40Z</time>
      </trkpt>
      <trkpt lat="43.5245" lon="5.0453">
        <ele>1</ele>
        <time>2020-09-21T12:42:44Z</time>
      </trkpt>
      <trkpt lat="43.52436" lon="5.04532">
        <ele>1</ele>
        <time>2020-09-21T12:42:58Z</time>
      </trkpt>
      <trkpt lat="43.52426" lon="5.04535">
        <ele>1</ele>
        <time>2020-09-21T12:43:26Z</time>
      </trkpt>
      <trkpt lat="43.52425" lon="5.04536">
        <ele>1</ele>
        <time>2020-09-21T12:43:27Z</time>
      </trkpt>
      <trkpt lat="43.52417" lon="5.04539">
        <ele>1</ele>
        <time>2020-09-21T12:43:54Z</time>
      </trkpt>
      <trkpt lat="43.52414" lon="5.04542">
        <ele>1</ele>
        <time>2020-09-21T12:44:56Z</time>
      </trkpt>
      <trkpt lat="43.52405" lon="5.04562">
        <time>2020-09-21T12:45:28Z</time>
      </trkpt>
      <trkpt lat="43.52392" lon="5.04584">
        <time>2020-09-21T12:45:56Z</time>
      </trkpt>
      <trkpt lat="43.52371" lon="5.046">
        <time>2020-09-21T12:46:26Z</time>
      </trkpt>
      <trkpt lat="43.5237" lon="5.04599">
        <time>2020-09-21T12:46:28Z</time>
      </trkpt>
      <trkpt lat="43.52363" lon="5.04599">
        <time>2020-09-21T12:46:50Z</time>
      </trkpt>
      <trkpt lat="43.52352" lon="5.04596">
        <time>2020-09-21T12:47:20Z</time>
      </trkpt>
      <trkpt lat="43.52316" lon="5.04589">
        <time>2020-09-21T12:47:49Z</time>
      </trkpt>
      <trkpt lat="43.52278" lon="5.04568">
        <time>2020-09-21T12:48:24Z</time>
      </trkpt>
      <trkpt lat="43.52269" lon="5.0456">
        <ele>1</ele>
        <time>2020-09-21T12:48:56Z</time>
      </trkpt>
      <trkpt lat="43.52266" lon="5.0455">
        <ele>1</ele>
        <time>2020-09-21T12:49:46Z</time>
      </trkpt>
      <trkpt lat="43.52235" lon="5.04534">
        <ele>1</ele>
        <time>2020-09-21T12:50:16Z</time>
      </trkpt>
      <trkpt lat="43.52215" lon="5.04531">
        <ele>1</ele>
        <time>2020-09-21T12:50:44Z</time>
      </trkpt>
      <trkpt lat="43.52196" lon="5.04541">
        <ele>1</ele>
        <time>2020-09-21T12:51:17Z</time>
      </trkpt>
      <trkpt lat="43.52193" lon="5.04547">
        <ele>1</ele>
        <time>2020-09-21T12:51:44Z</time>
      </trkpt>
      <trkpt lat="43.52167" lon="5.04579">
        <ele>1</ele>
        <time>2020-09-21T12:52:20Z</time>
      </trkpt>
      <trkpt lat="43.52159" lon="5.04584">
        <time>2020-09-21T12:52:49Z</time>
      </trkpt>
      <trkpt lat="43.52155" lon="5.04589">
        <time>2020-09-21T12:53:18Z</time>
      </trkpt>
      <trkpt lat="43.52159" lon="5.04608">
        <time>2020-09-21T12:53:48Z</time>
      </trkpt>
      <trkpt lat="43.52162" lon="5.04612">
        <time>2020-09-21T12:54:00Z</time>
      </trkpt>
      <trkpt lat="43.52166" lon="5.04626">
        <time>2020-09-21T12:54:12Z</time>
      </trkpt>
      <trkpt lat="43.52169" lon="5.04658">
        <ele>1</ele>
        <time>2020-09-21T12:54:43Z</time>
      </trkpt>
      <trkpt lat="43.52174" lon="5.04677">
        <ele>1</ele>
        <time>2020-09-21T12:55:11Z</time>
      </trkpt>
      <trkpt lat="43.52178" lon="5.04699">
        <ele>0.1</ele>
        <time>2020-09-21T12:55:39Z</time>
      </trkpt>
      <trkpt lat="43.52185" lon="5.04736">
        <ele>0.2</ele>
        <time>2020-09-21T12:56:10Z</time>
      </trkpt>
      <trkpt lat="43.52195" lon="5.04776">
        <ele>0.4</ele>
        <time>2020-09-21T12:56:44Z</time>
      </trkpt>
      <trkpt lat="43.52204" lon="5.04829">
        <ele>0.9</ele>
        <time>2020-09-21T12:57:21Z</time>
      </trkpt>
      <trkpt lat="43.52211" lon="5.04883">
        <ele>1.1</ele>
        <time>2020-09-21T12:57:59Z</time>
      </trkpt>
      <trkpt lat="43.52213" lon="5.04905">
        <ele>1.1</ele>
        <time>2020-09-21T12:58:29Z</time>
      </trkpt>
      <trkpt lat="43.52213" lon="5.04914">
        <ele>1.1</ele>
        <time>2020-09-21T12:58:57Z</time>
      </trkpt>
      <trkpt lat="43.52213" lon="5.04916">
        <ele>1.1</ele>
        <time>2020-09-21T12:59:42Z</time>
      </trkpt>
      <trkpt lat="43.52213" lon="5.04919">
        <ele>1.1</ele>
        <time>2020-09-21T13:00:24Z</time>
      </trkpt>
      <trkpt lat="43.52212" lon="5.04919">
        <ele>1.1</ele>
        <time>2020-09-21T13:04:47Z</time>
      </trkpt>
      <trkpt lat="43.5221" lon="5.04921">
        <ele>1</ele>
        <time>2020-09-21T13:05:06Z</time>
      </trkpt>
      <trkpt lat="43.5221" lon="5.04913">
        <ele>1</ele>
        <time>2020-09-21T13:05:47Z</time>
      </trkpt>
      <trkpt lat="43.52212" lon="5.04913">
        <ele>1.1</ele>
        <time>2020-09-21T13:06:16Z</time>
      </trkpt>
      <trkpt lat="43.52212" lon="5.04901">
        <ele>1.1</ele>
        <time>2020-09-21T13:07:07Z</time>
      </trkpt>
      <trkpt lat="43.52215" lon="5.04913">
        <ele>1.2</ele>
        <time>2020-09-21T13:07:34Z</time>
      </trkpt>
      <trkpt lat="43.52214" lon="5.0491">
        <ele>1.1</ele>
        <time>2020-09-21T13:08:47Z</time>
      </trkpt>
      <trkpt lat="43.52214" lon="5.049">
        <ele>1.1</ele>
        <time>2020-09-21T13:10:28Z</time>
      </trkpt>
      <trkpt lat="43.52214" lon="5.04895">
        <ele>1.1</ele>
        <time>2020-09-21T13:10:33Z</time>
      </trkpt>
      <trkpt lat="43.52205" lon="5.04843">
        <ele>0.9</ele>
        <time>2020-09-21T13:11:08Z</time>
      </trkpt>
      <trkpt lat="43.52199" lon="5.04794">
        <ele>0.6</ele>
        <time>2020-09-21T13:11:44Z</time>
      </trkpt>
      <trkpt lat="43.52201" lon="5.04777">
        <ele>0.5</ele>
        <time>2020-09-21T13:12:12Z</time>
      </trkpt>
      <trkpt lat="43.52204" lon="5.04772">
        <ele>0.6</ele>
        <time>2020-09-21T13:12:16Z</time>
      </trkpt>
      <trkpt lat="43.52215" lon="5.04751">
        <ele>0.6</ele>
        <time>2020-09-21T13:12:37Z</time>
      </trkpt>
      <trkpt lat="43.52248" lon="5.04752">
        <ele>1</ele>
        <time>2020-09-21T13:13:09Z</time>
      </trkpt>
      <trkpt lat="43.52275" lon="5.04789">
        <ele>1</ele>
        <time>2020-09-21T13:13:41Z</time>
      </trkpt>
      <trkpt lat="43.52311" lon="5.0482">
        <ele>0.5</ele>
        <time>2020-09-21T13:14:17Z</time>
      </trkpt>
      <trkpt lat="43.52315" lon="5.04821">
        <ele>0.4</ele>
        <time>2020-09-21T13:14:21Z</time>
      </trkpt>
      <trkpt lat="43.52345" lon="5.04803">
        <ele>1</ele>
        <time>2020-09-21T13:14:52Z</time>
      </trkpt>
      <trkpt lat="43.52374" lon="5.04802">
        <ele>1.4</ele>
        <time>2020-09-21T13:15:27Z</time>
      </trkpt>
      <trkpt lat="43.52379" lon="5.04811">
        <ele>1.6</ele>
        <time>2020-09-21T13:15:47Z</time>
      </trkpt>
      <trkpt lat="43.52375" lon="5.04832">
        <ele>1.5</ele>
        <time>2020-09-21T13:16:14Z</time>
      </trkpt>
      <trkpt lat="43.52366" lon="5.04831">
        <ele>1.8</ele>
        <time>2020-09-21T13:16:44Z</time>
      </trkpt>
      <trkpt lat="43.52354" lon="5.04835">
        <ele>1.9</ele>
        <time>2020-09-21T13:17:14Z</time>
      </trkpt>
      <trkpt lat="43.52337" lon="5.04846">
        <ele>0.1</ele>
        <time>2020-09-21T13:17:48Z</time>
      </trkpt>
      <trkpt lat="43.52316" lon="5.04864">
        <ele>0.7</ele>
        <time>2020-09-21T13:18:25Z</time>
      </trkpt>
      <trkpt lat="43.52307" lon="5.04867">
        <ele>0.9</ele>
        <time>2020-09-21T13:18:56Z</time>
      </trkpt>
      <trkpt lat="43.52316" lon="5.04858">
        <ele>0.7</ele>
        <time>2020-09-21T13:19:24Z</time>
      </trkpt>
      <trkpt lat="43.52323" lon="5.04854">
        <ele>0.5</ele>
        <time>2020-09-21T13:19:43Z</time>
      </trkpt>
      <trkpt lat="43.52334" lon="5.04844">
        <ele>0.1</ele>
        <time>2020-09-21T13:20:13Z</time>
      </trkpt>
      <trkpt lat="43.52351" lon="5.04835">
        <ele>1.9</ele>
        <time>2020-09-21T13:20:47Z</time>
      </trkpt>
      <trkpt lat="43.52375" lon="5.04828">
        <ele>1.5</ele>
        <time>2020-09-21T13:21:25Z</time>
      </trkpt>
      <trkpt lat="43.52378" lon="5.04829">
        <ele>1.4</ele>
        <time>2020-09-21T13:21:30Z</time>
      </trkpt>
      <trkpt lat="43.52384" lon="5.0484">
        <ele>1.1</ele>
        <time>2020-09-21T13:21:39Z</time>
      </trkpt>
      <trkpt lat="43.52379" lon="5.04883">
        <ele>-0.1</ele>
        <time>2020-09-21T13:22:13Z</time>
      </trkpt>
      <trkpt lat="43.52371" lon="5.04896">
        <ele>0.1</ele>
        <time>2020-09-21T13:22:26Z</time>
      </trkpt>
      <trkpt lat="43.5236" lon="5.04913">
        <ele>0.3</ele>
        <time>2020-09-21T13:22:51Z</time>
      </trkpt>
      <trkpt lat="43.52347" lon="5.04932">
        <ele>0.7</ele>
        <time>2020-09-21T13:23:09Z</time>
      </trkpt>
      <trkpt lat="43.52344" lon="5.04932">
        <ele>0.7</ele>
        <time>2020-09-21T13:23:12Z</time>
      </trkpt>
      <trkpt lat="43.52312" lon="5.04921">
        <ele>1.2</ele>
        <time>2020-09-21T13:23:43Z</time>
      </trkpt>
      <trkpt lat="43.52281" lon="5.04919">
        <ele>1.6</ele>
        <time>2020-09-21T13:24:13Z</time>
      </trkpt>
      <trkpt lat="43.52259" lon="5.04918">
        <ele>1.9</ele>
        <time>2020-09-21T13:24:44Z</time>
      </trkpt>
      <trkpt lat="43.5225" lon="5.04924">
        <ele>1.9</ele>
        <time>2020-09-21T13:24:55Z</time>
      </trkpt>
      <trkpt lat="43.52231" lon="5.04943">
        <ele>1.3</ele>
        <time>2020-09-21T13:25:28Z</time>
      </trkpt>
      <trkpt lat="43.52227" lon="5.04944">
        <ele>1.2</ele>
        <time>2020-09-21T13:26:02Z</time>
      </trkpt>
      <trkpt lat="43.52212" lon="5.04966">
        <ele>0.8</ele>
        <time>2020-09-21T13:27:14Z</time>
      </trkpt>
      <trkpt lat="43.52199" lon="5.04982">
        <ele>0.5</ele>
        <time>2020-09-21T13:27:46Z</time>
      </trkpt>
      <trkpt lat="43.52194" lon="5.04991">
        <ele>0.4</ele>
        <time>2020-09-21T13:28:10Z</time>
      </trkpt>
      <trkpt lat="43.52194" lon="5.04994">
        <ele>0.4</ele>
        <time>2020-09-21T13:28:52Z</time>
      </trkpt>
      <trkpt lat="43.52176" lon="5.05005">
        <ele>0.1</ele>
        <time>2020-09-21T13:29:18Z</time>
      </trkpt>
      <trkpt lat="43.52155" lon="5.05028">
        <ele>1</ele>
        <time>2020-09-21T13:29:44Z</time>
      </trkpt>
      <trkpt lat="43.52125" lon="5.05062">
        <ele>1.2</ele>
        <time>2020-09-21T13:30:15Z</time>
      </trkpt>
      <trkpt lat="43.52095" lon="5.05096">
        <ele>1.6</ele>
        <time>2020-09-21T13:30:47Z</time>
      </trkpt>
      <trkpt lat="43.52064" lon="5.0513">
        <ele>1.7</ele>
        <time>2020-09-21T13:31:21Z</time>
      </trkpt>
      <trkpt lat="43.52036" lon="5.0516">
        <ele>1.3</ele>
        <time>2020-09-21T13:31:54Z</time>
      </trkpt>
      <trkpt lat="43.52037" lon="5.05167">
        <ele>1</ele>
        <time>2020-09-21T13:32:25Z</time>
      </trkpt>
      <trkpt lat="43.52031" lon="5.05166">
        <ele>1</ele>
        <time>2020-09-21T13:33:20Z</time>
      </trkpt>
      <trkpt lat="43.52019" lon="5.05174">
        <ele>1</ele>
        <time>2020-09-21T13:33:44Z</time>
      </trkpt>
      <trkpt lat="43.52001" lon="5.05198">
        <ele>1</ele>
        <time>2020-09-21T13:34:13Z</time>
      </trkpt>
      <trkpt lat="43.51984" lon="5.05219">
        <ele>1</ele>
        <time>2020-09-21T13:34:40Z</time>
      </trkpt>
      <trkpt lat="43.51969" lon="5.05236">
        <ele>1</ele>
        <time>2020-09-21T13:35:15Z</time>
      </trkpt>
      <trkpt lat="43.51946" lon="5.05268">
        <ele>1</ele>
        <time>2020-09-21T13:35:48Z</time>
      </trkpt>
      <trkpt lat="43.51924" lon="5.05305">
        <ele>1</ele>
        <time>2020-09-21T13:36:22Z</time>
      </trkpt>
      <trkpt lat="43.51908" lon="5.05342">
        <ele>1</ele>
        <time>2020-09-21T13:36:56Z</time>
      </trkpt>
      <trkpt lat="43.51904" lon="5.05352">
        <ele>1</ele>
        <time>2020-09-21T13:37:09Z</time>
      </trkpt>
      <trkpt lat="43.51895" lon="5.05377">
        <ele>1</ele>
        <time>2020-09-21T13:37:37Z</time>
      </trkpt>
      <trkpt lat="43.51893" lon="5.05375">
        <ele>1</ele>
        <time>2020-09-21T13:38:12Z</time>
      </trkpt>
      <trkpt lat="43.51896" lon="5.05369">
        <ele>1</ele>
        <time>2020-09-21T13:39:44Z</time>
      </trkpt>
      <trkpt lat="43.51898" lon="5.05372">
        <ele>1</ele>
        <time>2020-09-21T13:40:15Z</time>
      </trkpt>
      <trkpt lat="43.51897" lon="5.05366">
        <ele>1</ele>
        <time>2020-09-21T13:40:53Z</time>
      </trkpt>
      <trkpt lat="43.51896" lon="5.05367">
        <ele>1</ele>
        <time>2020-09-21T13:41:31Z</time>
      </trkpt>
      <trkpt lat="43.51898" lon="5.05369">
        <ele>1</ele>
        <time>2020-09-21T13:44:00Z</time>
      </trkpt>
      <trkpt lat="43.519" lon="5.05373">
        <ele>1</ele>
        <time>2020-09-21T13:44:28Z</time>
      </trkpt>
      <trkpt lat="43.51894" lon="5.05375">
        <ele>1</ele>
        <time>2020-09-21T13:45:00Z</time>
      </trkpt>
      <trkpt lat="43.51894" lon="5.05371">
        <ele>1</ele>
        <time>2020-09-21T13:45:31Z</time>
      </trkpt>
      <trkpt lat="43.51895" lon="5.05373">
        <ele>1</ele>
        <time>2020-09-21T13:46:04Z</time>
      </trkpt>
      <trkpt lat="43.51895" lon="5.05373">
        <ele>1</ele>
        <time>2020-09-21T13:46:49Z</time>
      </trkpt>
      <trkpt lat="43.51897" lon="5.05371">
        <ele>1</ele>
        <time>2020-09-21T13:47:30Z</time>
      </trkpt>
      <trkpt lat="43.51902" lon="5.05366">
        <ele>1</ele>
        <time>2020-09-21T13:47:59Z</time>
      </trkpt>
      <trkpt lat="43.51893" lon="5.05368">
        <ele>1</ele>
        <time>2020-09-21T13:48:31Z</time>
      </trkpt>
      <trkpt lat="43.51894" lon="5.0537">
        <ele>1</ele>
        <time>2020-09-21T13:50:29Z</time>
      </trkpt>
      <trkpt lat="43.51896" lon="5.05371">
        <ele>1</ele>
        <time>2020-09-21T13:50:45Z</time>
      </trkpt>
      <trkpt lat="43.51906" lon="5.05372">
        <ele>1</ele>
        <time>2020-09-21T13:51:13Z</time>
      </trkpt>
      <trkpt lat="43.51906" lon="5.0537">
        <ele>1</ele>
        <time>2020-09-21T13:52:58Z</time>
      </trkpt>
      <trkpt lat="43.51896" lon="5.05367">
        <ele>1</ele>
        <time>2020-09-21T13:53:41Z</time>
      </trkpt>
      <trkpt lat="43.519" lon="5.05364">
        <ele>1</ele>
        <time>2020-09-21T13:54:21Z</time>
      </trkpt>
      <trkpt lat="43.51902" lon="5.05351">
        <ele>1</ele>
        <time>2020-09-21T13:54:32Z</time>
      </trkpt>
      <trkpt lat="43.51919" lon="5.05315">
        <ele>1</ele>
        <time>2020-09-21T13:55:05Z</time>
      </trkpt>
      <trkpt lat="43.51936" lon="5.0528">
        <ele>1</ele>
        <time>2020-09-21T13:55:34Z</time>
      </trkpt>
      <trkpt lat="43.51958" lon="5.05245">
        <ele>1</ele>
        <time>2020-09-21T13:56:07Z</time>
      </trkpt>
      <trkpt lat="43.51985" lon="5.05213">
        <ele>1</ele>
        <time>2020-09-21T13:56:39Z</time>
      </trkpt>
      <trkpt lat="43.52013" lon="5.05183">
        <ele>1</ele>
        <time>2020-09-21T13:57:12Z</time>
      </trkpt>
      <trkpt lat="43.5204" lon="5.05152">
        <ele>1.5</ele>
        <time>2020-09-21T13:57:44Z</time>
      </trkpt>
      <trkpt lat="43.5207" lon="5.0512">
        <ele>1.3</ele>
        <time>2020-09-21T13:58:19Z</time>
      </trkpt>
      <trkpt lat="43.52097" lon="5.05091">
        <ele>1.7</ele>
        <time>2020-09-21T13:58:51Z</time>
      </trkpt>
      <trkpt lat="43.5213" lon="5.05055">
        <ele>1</ele>
        <time>2020-09-21T13:59:30Z</time>
      </trkpt>
      <trkpt lat="43.52154" lon="5.05028">
        <ele>1</ele>
        <time>2020-09-21T14:00:01Z</time>
      </trkpt>
      <trkpt lat="43.52188" lon="5.04992">
        <ele>0.3</ele>
        <time>2020-09-21T14:00:40Z</time>
      </trkpt>
      <trkpt lat="43.52217" lon="5.04958">
        <ele>0.9</ele>
        <time>2020-09-21T14:01:15Z</time>
      </trkpt>
      <trkpt lat="43.52243" lon="5.04929">
        <ele>1.7</ele>
        <time>2020-09-21T14:01:50Z</time>
      </trkpt>
      <trkpt lat="43.5228" lon="5.04918">
        <ele>1.6</ele>
        <time>2020-09-21T14:02:27Z</time>
      </trkpt>
      <trkpt lat="43.5232" lon="5.04924">
        <ele>1.1</ele>
        <time>2020-09-21T14:03:06Z</time>
      </trkpt>
      <trkpt lat="43.52351" lon="5.04926">
        <ele>0.6</ele>
        <time>2020-09-21T14:03:37Z</time>
      </trkpt>
      <trkpt lat="43.52374" lon="5.04888">
        <ele>1</ele>
        <time>2020-09-21T14:04:13Z</time>
      </trkpt>
      <trkpt lat="43.52382" lon="5.04843">
        <ele>1.2</ele>
        <time>2020-09-21T14:04:45Z</time>
      </trkpt>
      <trkpt lat="43.52388" lon="5.04826">
        <ele>1.3</ele>
        <time>2020-09-21T14:04:59Z</time>
      </trkpt>
      <trkpt lat="43.52424" lon="5.04822">
        <ele>1</ele>
        <time>2020-09-21T14:05:33Z</time>
      </trkpt>
      <trkpt lat="43.52431" lon="5.0482">
        <ele>1</ele>
        <time>2020-09-21T14:06:07Z</time>
      </trkpt>
      <trkpt lat="43.52456" lon="5.04819">
        <ele>1</ele>
        <time>2020-09-21T14:06:41Z</time>
      </trkpt>
      <trkpt lat="43.52488" lon="5.04816">
        <ele>1</ele>
        <time>2020-09-21T14:07:16Z</time>
      </trkpt>
      <trkpt lat="43.52512" lon="5.04814">
        <ele>0.1</ele>
        <time>2020-09-21T14:07:46Z</time>
      </trkpt>
      <trkpt lat="43.52534" lon="5.04812">
        <ele>0.3</ele>
        <time>2020-09-21T14:08:14Z</time>
      </trkpt>
      <trkpt lat="43.52568" lon="5.04812">
        <ele>0.6</ele>
        <time>2020-09-21T14:08:41Z</time>
      </trkpt>
      <trkpt lat="43.52602" lon="5.04813">
        <ele>0.9</ele>
        <time>2020-09-21T14:09:15Z</time>
      </trkpt>
      <trkpt lat="43.52631" lon="5.04808">
        <ele>1.2</ele>
        <time>2020-09-21T14:09:49Z</time>
      </trkpt>
      <trkpt lat="43.52657" lon="5.04802">
        <ele>1.6</ele>
        <time>2020-09-21T14:10:22Z</time>
      </trkpt>
      <trkpt lat="43.52683" lon="5.04799">
        <ele>1.6</ele>
        <time>2020-09-21T14:10:54Z</time>
      </trkpt>
      <trkpt lat="43.52704" lon="5.04792">
        <ele>1.6</ele>
        <time>2020-09-21T14:11:25Z</time>
      </trkpt>
      <trkpt lat="43.52715" lon="5.04785">
        <ele>1.6</ele>
        <time>2020-09-21T14:11:53Z</time>
      </trkpt>
      <trkpt lat="43.52736" lon="5.04764">
        <ele>1.8</ele>
        <time>2020-09-21T14:12:19Z</time>
      </trkpt>
      <trkpt lat="43.52756" lon="5.04742">
        <ele>2.1</ele>
        <time>2020-09-21T14:12:53Z</time>
      </trkpt>
      <trkpt lat="43.5278" lon="5.04714">
        <ele>2.3</ele>
        <time>2020-09-21T14:13:26Z</time>
      </trkpt>
      <trkpt lat="43.52804" lon="5.04691">
        <ele>2.2</ele>
        <time>2020-09-21T14:13:57Z</time>
      </trkpt>
      <trkpt lat="43.52835" lon="5.0469">
        <ele>2</ele>
        <time>2020-09-21T14:14:29Z</time>
      </trkpt>
      <trkpt lat="43.52867" lon="5.04709">
        <ele>2.8</ele>
        <time>2020-09-21T14:15:02Z</time>
      </trkpt>
      <trkpt lat="43.52899" lon="5.04726">
        <ele>3.6</ele>
        <time>2020-09-21T14:15:37Z</time>
      </trkpt>
      <trkpt lat="43.52933" lon="5.04738">
        <ele>4.1</ele>
        <time>2020-09-21T14:16:12Z</time>
      </trkpt>
      <trkpt lat="43.52966" lon="5.04744">
        <ele>4.1</ele>
        <time>2020-09-21T14:16:46Z</time>
      </trkpt>
      <trkpt lat="43.53" lon="5.04735">
        <ele>4.4</ele>
        <time>2020-09-21T14:17:17Z</time>
      </trkpt>
      <trkpt lat="43.53016" lon="5.04727">
        <ele>4.6</ele>
        <time>2020-09-21T14:17:36Z</time>
      </trkpt>
      <trkpt lat="43.53021" lon="5.04723">
        <ele>4.7</ele>
        <time>2020-09-21T14:17:40Z</time>
      </trkpt>
      <trkpt lat="43.53045" lon="5.04702">
        <ele>5.5</ele>
        <time>2020-09-21T14:18:11Z</time>
      </trkpt>
      <trkpt lat="43.53068" lon="5.04674">
        <ele>6.6</ele>
        <time>2020-09-21T14:18:42Z</time>
      </trkpt>
      <trkpt lat="43.53105" lon="5.04668">
        <ele>7.2</ele>
        <time>2020-09-21T14:19:18Z</time>
      </trkpt>
      <trkpt lat="43.53138" lon="5.04674">
        <ele>7.5</ele>
        <time>2020-09-21T14:19:49Z</time>
      </trkpt>
      <trkpt lat="43.53175" lon="5.04674">
        <ele>7.7</ele>
        <time>2020-09-21T14:20:22Z</time>
      </trkpt>
      <trkpt lat="43.53207" lon="5.04672">
        <ele>7</ele>
        <time>2020-09-21T14:20:55Z</time>
      </trkpt>
      <trkpt lat="43.5324" lon="5.04667">
        <ele>6.2</ele>
        <time>2020-09-21T14:21:27Z</time>
      </trkpt>
      <trkpt lat="43.5328" lon="5.04672">
        <ele>6.1</ele>
        <time>2020-09-21T14:22:03Z</time>
      </trkpt>
      <trkpt lat="43.5331" lon="5.0467">
        <ele>6.1</ele>
        <time>2020-09-21T14:22:34Z</time>
      </trkpt>
      <trkpt lat="43.5334" lon="5.04667">
        <ele>6.2</ele>
        <time>2020-09-21T14:23:03Z</time>
      </trkpt>
      <trkpt lat="43.53378" lon="5.04662">
        <ele>7.2</ele>
        <time>2020-09-21T14:23:42Z</time>
      </trkpt>
      <trkpt lat="43.5341" lon="5.04661">
        <ele>8</ele>
        <time>2020-09-21T14:24:11Z</time>
      </trkpt>
      <trkpt lat="43.53426" lon="5.04668">
        <ele>8.3</ele>
        <time>2020-09-21T14:24:41Z</time>
      </trkpt>
      <trkpt lat="43.53429" lon="5.04676">
        <ele>8.8</ele>
        <time>2020-09-21T14:24:56Z</time>
      </trkpt>
      <trkpt lat="43.53443" lon="5.04708">
        <ele>11.1</ele>
        <time>2020-09-21T14:25:21Z</time>
      </trkpt>
      <trkpt lat="43.53454" lon="5.04713">
        <ele>11.9</ele>
        <time>2020-09-21T14:25:54Z</time>
      </trkpt>
      <trkpt lat="43.53468" lon="5.04707">
        <ele>12.1</ele>
        <time>2020-09-21T14:26:28Z</time>
      </trkpt>
      <trkpt lat="43.53488" lon="5.04699">
        <ele>12.3</ele>
        <time>2020-09-21T14:27:05Z</time>
      </trkpt>
      <trkpt lat="43.53495" lon="5.04697">
        <ele>12.4</ele>
        <time>2020-09-21T14:27:17Z</time>
      </trkpt>
      <trkpt lat="43.53499" lon="5.04705">
        <ele>13.1</ele>
        <time>2020-09-21T14:27:24Z</time>
      </trkpt>
      <trkpt lat="43.53508" lon="5.04708">
        <ele>14.1</ele>
        <time>2020-09-21T14:27:48Z</time>
      </trkpt>
      <trkpt lat="43.53526" lon="5.04693">
        <ele>14.5</ele>
        <time>2020-09-21T14:28:31Z</time>
      </trkpt>
      <trkpt lat="43.5354" lon="5.04689">
        <ele>15.4</ele>
        <time>2020-09-21T14:28:50Z</time>
      </trkpt>
      <trkpt lat="43.53568" lon="5.0468">
        <ele>17.4</ele>
        <time>2020-09-21T14:29:20Z</time>
      </trkpt>
      <trkpt lat="43.536" lon="5.0466">
        <ele>17.9</ele>
        <time>2020-09-21T14:29:54Z</time>
      </trkpt>
      <trkpt lat="43.53613" lon="5.04641">
        <ele>17.1</ele>
        <time>2020-09-21T14:30:15Z</time>
      </trkpt>
      <trkpt lat="43.53637" lon="5.04608">
        <ele>16.7</ele>
        <time>2020-09-21T14:30:47Z</time>
      </trkpt>
      <trkpt lat="43.53659" lon="5.04601">
        <ele>17.9</ele>
        <time>2020-09-21T14:31:16Z</time>
      </trkpt>
      <trkpt lat="43.53678" lon="5.04582">
        <ele>18.2</ele>
        <time>2020-09-21T14:31:49Z</time>
      </trkpt>
      <trkpt lat="43.53697" lon="5.04563">
        <ele>17.2</ele>
        <time>2020-09-21T14:32:19Z</time>
      </trkpt>
      <trkpt lat="43.53719" lon="5.04579">
        <ele>19</ele>
        <time>2020-09-21T14:32:53Z</time>
      </trkpt>
      <trkpt lat="43.53735" lon="5.04594">
        <ele>19.9</ele>
        <time>2020-09-21T14:33:21Z</time>
      </trkpt>
      <trkpt lat="43.53746" lon="5.04591">
        <ele>20.1</ele>
        <time>2020-09-21T14:33:36Z</time>
      </trkpt>
      <trkpt lat="43.53768" lon="5.04592">
        <ele>20.2</ele>
        <time>2020-09-21T14:34:01Z</time>
      </trkpt>
      <trkpt lat="43.53792" lon="5.04581">
        <ele>19.8</ele>
        <time>2020-09-21T14:34:35Z</time>
      </trkpt>
      <trkpt lat="43.53796" lon="5.04575">
        <ele>19.5</ele>
        <time>2020-09-21T14:34:41Z</time>
      </trkpt>
      <trkpt lat="43.53812" lon="5.04536">
        <ele>17.1</ele>
        <time>2020-09-21T14:35:14Z</time>
      </trkpt>
      <trkpt lat="43.53838" lon="5.04502">
        <ele>15.3</ele>
        <time>2020-09-21T14:35:49Z</time>
      </trkpt>
      <trkpt lat="43.53861" lon="5.04468">
        <ele>14.7</ele>
        <time>2020-09-21T14:36:23Z</time>
      </trkpt>
      <trkpt lat="43.53883" lon="5.04441">
        <ele>14.8</ele>
        <time>2020-09-21T14:36:55Z</time>
      </trkpt>
      <trkpt lat="43.53909" lon="5.04407">
        <ele>15.2</ele>
        <time>2020-09-21T14:37:27Z</time>
      </trkpt>
      <trkpt lat="43.53938" lon="5.04377">
        <ele>14.6</ele>
        <time>2020-09-21T14:38:03Z</time>
      </trkpt>
      <trkpt lat="43.53957" lon="5.04354">
        <ele>13.7</ele>
        <time>2020-09-21T14:38:28Z</time>
      </trkpt>
      <trkpt lat="43.53991" lon="5.04331">
        <ele>13</ele>
        <time>2020-09-21T14:39:02Z</time>
      </trkpt>
      <trkpt lat="43.54016" lon="5.04316">
        <ele>12.8</ele>
        <time>2020-09-21T14:39:31Z</time>
      </trkpt>
      <trkpt lat="43.54045" lon="5.04302">
        <ele>12.6</ele>
        <time>2020-09-21T14:40:00Z</time>
      </trkpt>
      <trkpt lat="43.54079" lon="5.04277">
        <ele>12.3</ele>
        <time>2020-09-21T14:40:32Z</time>
      </trkpt>
      <trkpt lat="43.54114" lon="5.04254">
        <ele>12</ele>
        <time>2020-09-21T14:41:08Z</time>
      </trkpt>
      <trkpt lat="43.54118" lon="5.04254">
        <ele>12</ele>
        <time>2020-09-21T14:41:13Z</time>
      </trkpt>
      <trkpt lat="43.54115" lon="5.04267">
        <ele>12</ele>
        <time>2020-09-21T14:41:34Z</time>
      </trkpt>
      <trkpt lat="43.54118" lon="5.04265">
        <ele>12</ele>
        <time>2020-09-21T14:41:39Z</time>
      </trkpt>
      <trkpt lat="43.54127" lon="5.04257">
        <ele>12</ele>
        <time>2020-09-21T14:41:49Z</time>
      </trkpt>
      <trkpt lat="43.5414" lon="5.04233">
        <ele>12.4</ele>
        <time>2020-09-21T14:42:10Z</time>
      </trkpt>
      <trkpt lat="43.5415" lon="5.04222">
        <ele>12.7</ele>
        <time>2020-09-21T14:42:36Z</time>
      </trkpt>
      <trkpt lat="43.54179" lon="5.04195">
        <ele>13.2</ele>
        <time>2020-09-21T14:43:11Z</time>
      </trkpt>
      <trkpt lat="43.54195" lon="5.04155">
        <ele>13.7</ele>
        <time>2020-09-21T14:43:45Z</time>
      </trkpt>
      <trkpt lat="43.54196" lon="5.04153">
        <ele>13.6</ele>
        <time>2020-09-21T14:43:59Z</time>
      </trkpt>
      <trkpt lat="43.54204" lon="5.04145">
        <ele>13.5</ele>
        <time>2020-09-21T14:44:27Z</time>
      </trkpt>
      <trkpt lat="43.54209" lon="5.04138">
        <ele>13.5</ele>
        <time>2020-09-21T14:44:39Z</time>
      </trkpt>
    </trkseg>
  </trk>
</gpx>